Time;durP1;ratioP1;P1;durP2;ratioP2;P2;SDS_P1;SDS_P2;PMS_P1;PMS_P2;Temp;Humidity;BMP_temperature;BMP_pressure;BME280_temperature;BME280_humidity;BME280_pressure;Samples;Min_cycle;Max_cycle;Signal;HPM_P1;HPM_P2
2024/04/17 00:01:40;;;;;;;2.30;1.60;;;;;;;4.38;100.00;98127.91;6631234;21;20231;-86
2024/04/17 00:04:08;;;;;;;2.47;1.63;;;;;;;4.33;100.00;98130.41;6587511;21;20302;-85
2024/04/17 00:06:38;;;;;;;2.33;1.63;;;;;;;4.32;100.00;98126.94;6631757;21;20220;-90
2024/04/17 00:09:06;;;;;;;2.73;1.80;;;;;;;4.32;100.00;98132.22;6631105;21;20333;-87
2024/04/17 00:11:33;;;;;;;3.10;1.50;;;;;;;4.28;100.00;98127.56;6587648;21;20732;-86
2024/04/17 00:14:01;;;;;;;2.33;1.67;;;;;;;4.23;100.00;98114.16;6545091;21;20280;-86
2024/04/17 00:16:32;;;;;;;2.63;1.90;;;;;;;4.22;100.00;98110.69;6633130;21;20693;-86
2024/04/17 00:19:00;;;;;;;1.97;1.57;;;;;;;4.20;100.00;98094.16;6544958;21;20240;-86
2024/04/17 00:21:29;;;;;;;2.83;1.90;;;;;;;4.19;100.00;98105.81;6587626;21;20231;-86
2024/04/17 00:23:56;;;;;;;2.03;1.60;;;;;;;4.08;100.00;98090.59;6588072;21;20228;-84
2024/04/17 00:26:26;;;;;;;2.03;1.83;;;;;;;4.02;100.00;98094.09;6544907;21;20299;-85
2024/04/17 00:29:00;;;;;;;1.90;1.60;;;;;;;4.03;100.00;98093.09;6589550;21;20235;-87
2024/04/17 00:31:32;;;;;;;3.43;1.67;;;;;;;4.02;100.00;98091.47;6587723;21;20709;-86
2024/04/17 00:34:22;;;;;;;2.13;1.53;;;;;;;4.06;100.00;98094.50;6596891;21;20680;-87
2024/04/17 00:36:50;;;;;;;2.43;1.80;;;;;;;4.09;100.00;98100.19;6631537;21;20232;-87
2024/04/17 00:39:19;;;;;;;1.80;1.57;;;;;;;4.10;100.00;98103.66;6631389;21;20263;-87
2024/04/17 00:41:48;;;;;;;4.07;1.70;;;;;;;4.11;100.00;98097.31;6631231;21;20328;-87
2024/04/17 00:44:16;;;;;;;3.37;1.70;;;;;;;4.16;100.00;98095.63;6631682;21;20326;-86
2024/04/17 00:46:45;;;;;;;2.70;1.70;;;;;;;4.17;100.00;98091.97;6631607;21;20224;-85
2024/04/17 00:49:14;;;;;;;1.83;1.70;;;;;;;4.23;100.00;98095.59;6588491;21;20268;-86
2024/04/17 00:51:42;;;;;;;2.37;1.73;;;;;;;4.29;100.00;98081.47;6633366;21;20224;-87
2024/04/17 00:54:11;;;;;;;1.70;1.50;;;;;;;4.31;100.00;98082.88;6589015;21;20228;-88
2024/04/17 00:56:39;;;;;;;1.90;1.57;;;;;;;4.37;100.00;98083.84;6631560;21;20220;-86
2024/04/17 00:59:10;;;;;;;2.47;1.70;;;;;;;4.43;100.00;98086.44;6588426;21;20231;-87
2024/04/17 01:01:40;;;;;;;2.10;1.57;;;;;;;4.47;100.00;98084.19;6589098;21;20288;-86
2024/04/17 01:04:09;;;;;;;2.03;1.50;;;;;;;4.49;100.00;98098.00;6545884;21;20271;-85
2024/04/17 01:06:37;;;;;;;2.43;1.50;;;;;;;4.50;100.00;98094.34;6587905;21;20228;-86
2024/04/17 01:09:07;;;;;;;1.93;1.50;;;;;;;4.49;100.00;98099.84;6587601;21;20251;-87
2024/04/17 01:11:39;;;;;;;2.00;1.60;;;;;;;4.50;100.00;98094.34;6633173;21;20224;-86
2024/04/17 01:14:11;;;;;;;4.10;1.47;;;;;;;4.56;100.00;98097.97;6631656;21;20705;-85
2024/04/17 01:16:40;;;;;;;1.87;1.50;;;;;;;4.60;100.00;98084.06;6633127;21;20225;-86
2024/04/17 01:19:09;;;;;;;2.07;1.30;;;;;;;4.66;100.00;98079.72;6587122;21;20233;-86
2024/04/17 01:21:37;;;;;;;2.00;1.63;;;;;;;4.69;100.00;98068.66;6631031;21;20313;-86
2024/04/17 01:24:05;;;;;;;2.23;1.20;;;;;;;4.72;100.00;98079.63;6587125;21;20240;-86
2024/04/17 01:26:36;;;;;;;1.30;1.20;;;;;;;4.82;100.00;98077.28;6630935;21;20240;-84
2024/04/17 01:29:05;;;;;;;2.13;1.40;;;;;;;4.94;100.00;98074.72;6675321;21;20224;-87
2024/04/17 01:31:33;;;;;;;4.33;1.13;;;;;;;5.21;100.00;98069.91;6586514;21;20244;-86
2024/04/17 01:34:02;;;;;;;0.97;0.80;;;;;;;5.44;100.00;98059.41;6631073;21;20220;-85
2024/04/17 01:36:32;;;;;;;1.50;0.90;;;;;;;5.85;100.00;98060.47;6631385;21;20391;-86
2024/04/17 01:39:03;;;;;;;1.23;0.90;;;;;;;6.11;100.00;98065.44;6588426;21;20237;-85
2024/04/17 01:41:34;;;;;;;1.07;0.63;;;;;;;6.35;100.00;98063.56;6632584;21;20226;-85
2024/04/17 01:44:11;;;;;;;1.27;0.73;;;;;;;6.54;100.00;98065.09;6589438;21;20224;-87
2024/04/17 01:46:42;;;;;;;1.23;0.60;;;;;;;6.63;100.00;98058.38;6590397;21;20232;-85
2024/04/17 01:49:19;;;;;;;1.37;0.70;;;;;;;6.77;100.00;98050.97;6592135;21;20243;-87
2024/04/17 01:51:48;;;;;;;1.03;0.60;;;;;;;6.92;100.00;98052.09;6588989;21;20233;-87
2024/04/17 01:54:22;;;;;;;1.57;0.60;;;;;;;7.04;100.00;98058.25;6632167;21;20220;-87
2024/04/17 01:56:52;;;;;;;1.03;0.70;;;;;;;7.13;100.00;98052.53;6632086;21;20232;-86
2024/04/17 01:59:19;;;;;;;1.00;0.50;;;;;;;7.23;100.00;98042.09;6588636;21;20231;-87
2024/04/17 02:01:48;;;;;;;2.73;0.50;;;;;;;7.25;100.00;98050.63;6588262;21;20287;-86
2024/04/17 02:04:16;;;;;;;0.60;0.50;;;;;;;7.27;100.00;98054.69;6588677;21;20232;-87
2024/04/17 02:06:43;;;;;;;2.30;0.53;;;;;;;7.43;100.00;98045.13;6632368;21;20709;-89
2024/04/17 02:09:11;;;;;;;0.40;0.37;;;;;;;7.50;100.00;98051.97;6588564;21;20224;-85
2024/04/17 02:11:40;;;;;;;0.60;0.30;;;;;;;7.62;100.00;98043.91;6545034;21;20236;-85
2024/04/17 02:14:10;;;;;;;0.50;0.30;;;;;;;7.79;100.00;98057.28;6588177;21;20233;-84
2024/04/17 02:16:40;;;;;;;0.43;0.20;;;;;;;7.76;100.00;98055.88;6631957;21;20272;-86
2024/04/17 02:19:07;;;;;;;0.60;0.30;;;;;;;7.66;100.00;98058.34;6545000;21;20279;-88
2024/04/17 02:21:36;;;;;;;0.20;0.20;;;;;;;7.52;100.00;98052.50;6588633;21;20258;-86
2024/04/17 02:24:06;;;;;;;0.20;0.20;;;;;;;7.56;100.00;98055.50;6588668;21;20227;-84
2024/04/17 02:26:39;;;;;;;0.20;0.20;;;;;;;7.53;100.00;98050.66;6676856;21;20236;-85
2024/04/17 02:29:07;;;;;;;0.40;0.37;;;;;;;7.48;100.00;98059.38;6632234;21;20327;-86
2024/04/17 02:31:36;;;;;;;1.07;0.20;;;;;;;7.52;100.00;98054.38;6588518;21;20235;-87
2024/04/17 02:34:04;;;;;;;0.20;0.20;;;;;;;7.49;100.00;98060.19;6631830;21;20224;-86
2024/04/17 02:36:31;;;;;;;0.23;0.20;;;;;;;7.50;100.00;98073.28;6587879;21;20232;-83
2024/04/17 02:38:59;;;;;;;0.30;0.20;;;;;;;7.39;100.00;98062.66;6631849;21;20232;-87
2024/04/17 02:41:27;;;;;;;0.20;0.20;;;;;;;7.21;100.00;98062.81;6589186;21;20269;-88
2024/04/17 02:43:55;;;;;;;0.40;0.20;;;;;;;7.13;100.00;98060.53;6588812;21;20310;-86
2024/04/17 02:46:23;;;;;;;0.40;0.20;;;;;;;7.05;100.00;98067.81;6588901;21;20238;-86
2024/04/17 02:48:52;;;;;;;0.20;0.20;;;;;;;6.98;100.00;98069.81;6634696;21;20280;-86
2024/04/17 02:51:20;;;;;;;0.80;0.27;;;;;;;6.94;100.00;98059.88;6588675;21;20287;-86
2024/04/17 02:53:50;;;;;;;0.33;0.30;;;;;;;6.88;100.00;98063.47;6588866;21;20731;-87
2024/04/17 02:56:18;;;;;;;0.20;0.20;;;;;;;6.90;100.00;98069.38;6588655;21;20317;-87
2024/04/17 02:58:54;;;;;;;0.50;0.30;;;;;;;6.89;100.00;98079.22;6634454;21;20239;-86
2024/04/17 03:01:24;;;;;;;0.30;0.20;;;;;;;6.84;100.00;98076.44;6633394;21;20235;-86
2024/04/17 03:03:52;;;;;;;0.60;0.30;;;;;;;6.84;100.00;98076.44;6632273;21;20287;-87
2024/04/17 03:06:23;;;;;;;0.70;0.30;;;;;;;6.80;100.00;98080.59;6590378;21;20239;-86
2024/04/17 03:09:02;;;;;;;0.40;0.33;;;;;;;6.81;100.00;98079.53;6588478;21;20219;-86
2024/04/17 03:11:42;;;;;;;0.40;0.30;;;;;;;6.76;100.00;98078.66;6590159;21;20232;-85
2024/04/17 03:14:11;;;;;;;0.20;0.20;;;;;;;6.71;100.00;98078.53;6632601;21;20231;-87
2024/04/17 03:16:39;;;;;;;0.40;0.40;;;;;;;6.61;100.00;98076.44;6588195;21;20274;-87
2024/04/17 03:19:09;;;;;;;0.57;0.27;;;;;;;6.60;100.00;98075.63;6588608;21;20736;-87
2024/04/17 03:21:38;;;;;;;0.50;0.30;;;;;;;6.45;100.00;98077.13;6589933;21;20276;-87
2024/04/17 03:24:06;;;;;;;0.33;0.33;;;;;;;6.41;100.00;98090.09;6587697;21;20309;-86
2024/04/17 03:26:35;;;;;;;0.27;0.27;;;;;;;6.27;100.00;98090.53;6632599;21;20317;-86
2024/04/17 03:29:07;;;;;;;0.30;0.30;;;;;;;6.16;100.00;98092.94;6590269;21;20224;-87
2024/04/17 03:31:41;;;;;;;0.23;0.23;;;;;;;6.10;100.00;98101.84;6631505;21;20243;-86
2024/04/17 03:34:09;;;;;;;0.20;0.20;;;;;;;6.03;100.00;98111.75;6632182;21;20319;-86
2024/04/17 03:36:38;;;;;;;0.30;0.30;;;;;;;5.97;100.00;98104.66;6545116;21;20682;-85
2024/04/17 03:39:06;;;;;;;0.70;0.40;;;;;;;6.03;100.00;98108.28;6588317;21;20271;-86
2024/04/17 03:41:35;;;;;;;0.33;0.30;;;;;;;6.05;100.00;98114.19;6588463;21;20255;-86
2024/04/17 03:44:03;;;;;;;0.33;0.33;;;;;;;6.00;100.00;98114.06;6631468;21;20224;-87
2024/04/17 03:46:32;;;;;;;0.27;0.27;;;;;;;5.95;100.00;98119.25;6632019;21;20267;-88
2024/04/17 03:49:01;;;;;;;0.30;0.30;;;;;;;5.97;100.00;98122.50;6587222;21;20228;-85
2024/04/17 03:51:29;;;;;;;0.40;0.40;;;;;;;5.96;100.00;98126.19;6630962;21;20287;-86
2024/04/17 03:53:58;;;;;;;0.33;0.33;;;;;;;6.04;100.00;98129.31;6631021;21;20290;-86
2024/04/17 03:56:26;;;;;;;0.97;0.40;;;;;;;5.93;100.00;98129.28;6587139;21;20236;-87
2024/04/17 03:58:56;;;;;;;0.40;0.37;;;;;;;5.86;100.00;98125.88;6630512;21;20220;-87
2024/04/17 04:01:24;;;;;;;0.40;0.40;;;;;;;5.90;100.00;98135.88;6587471;21;20232;-86
2024/04/17 04:03:56;;;;;;;0.40;0.40;;;;;;;5.90;100.00;98135.06;6588491;21;20228;-87
2024/04/17 04:06:27;;;;;;;0.60;0.50;;;;;;;5.87;100.00;98143.47;6631365;21;20277;-86
2024/04/17 04:08:55;;;;;;;0.40;0.40;;;;;;;5.79;100.00;98131.28;6630629;21;20228;-86
2024/04/17 04:11:27;;;;;;;0.50;0.40;;;;;;;5.88;100.00;98134.47;6630420;21;20226;-87
2024/04/17 04:13:55;;;;;;;0.50;0.50;;;;;;;5.91;100.00;98129.53;6631329;21;20228;-86
2024/04/17 04:16:28;;;;;;;0.60;0.60;;;;;;;5.99;100.00;98131.84;6630990;21;20322;-86
2024/04/17 04:18:57;;;;;;;0.50;0.50;;;;;;;6.08;100.00;98141.13;6632207;21;20257;-87
2024/04/17 04:21:27;;;;;;;0.97;0.70;;;;;;;6.02;100.00;98144.69;6588356;21;20240;-88
2024/04/17 04:23:59;;;;;;;0.57;0.57;;;;;;;6.04;100.00;98142.63;6546745;21;20314;-87
2024/04/17 04:26:30;;;;;;;0.60;0.60;;;;;;;6.14;100.00;98144.72;6588617;21;20271;-87
2024/04/17 04:29:00;;;;;;;0.60;0.60;;;;;;;6.27;100.00;98146.38;6631403;21;20225;-85
2024/04/17 04:31:31;;;;;;;0.50;0.50;;;;;;;6.36;100.00;98155.66;6588910;21;20248;-87
2024/04/17 04:33:59;;;;;;;1.13;0.60;;;;;;;6.36;100.00;98155.66;6588354;21;20258;-85
2024/04/17 04:36:27;;;;;;;0.57;0.57;;;;;;;6.42;100.00;98152.09;6631229;21;20224;-85
2024/04/17 04:38:54;;;;;;;0.50;0.50;;;;;;;6.43;100.00;98161.69;6587805;21;20224;-87
2024/04/17 04:41:26;;;;;;;0.70;0.70;;;;;;;6.55;100.00;98151.88;6588444;21;20232;-86
2024/04/17 04:43:54;;;;;;;0.60;0.60;;;;;;;6.57;100.00;98166.59;6630926;21;20219;-87
2024/04/17 04:46:23;;;;;;;0.50;0.50;;;;;;;6.64;100.00;98163.78;6588248;21;20685;-86
2024/04/17 04:48:52;;;;;;;0.50;0.50;;;;;;;6.74;100.00;98155.25;6587532;21;20243;-86
2024/04/17 04:51:23;;;;;;;0.50;0.50;;;;;;;6.84;100.00;98171.47;6631034;21;20647;-85
2024/04/17 04:53:54;;;;;;;0.50;0.50;;;;;;;6.92;100.00;98166.59;6630975;21;20254;-88
2024/04/17 04:56:23;;;;;;;0.60;0.60;;;;;;;6.97;100.00;98173.88;6630705;21;20721;-87
2024/04/17 04:58:52;;;;;;;0.60;0.60;;;;;;;7.06;100.00;98175.97;6630816;21;20228;-86
2024/04/17 05:01:21;;;;;;;0.60;0.60;;;;;;;7.04;100.00;98174.59;6587573;21;20674;-86
2024/04/17 05:03:49;;;;;;;0.80;0.60;;;;;;;7.10;100.00;98186.97;6631035;21;20236;-86
2024/04/17 05:06:18;;;;;;;0.50;0.50;;;;;;;7.07;100.00;98185.59;6631555;21;20228;-87
2024/04/17 05:08:45;;;;;;;0.63;0.63;;;;;;;7.07;100.00;98184.78;6586954;21;20267;-87
2024/04/17 05:11:13;;;;;;;0.63;0.63;;;;;;;7.10;100.00;98186.97;6630346;21;20265;-85
2024/04/17 05:13:41;;;;;;;0.70;0.70;;;;;;;7.18;100.00;98188.47;6586971;21;20231;-87
2024/04/17 05:16:09;;;;;;;0.93;0.70;;;;;;;7.39;100.00;98180.69;6632944;21;20238;-87
2024/04/17 05:18:40;;;;;;;0.60;0.60;;;;;;;7.51;100.00;98192.13;6633711;21;20272;-87
2024/04/17 05:21:11;;;;;;;0.80;0.80;;;;;;;7.52;100.00;98180.44;6588254;21;20323;-86
2024/04/17 05:23:41;;;;;;;0.70;0.70;;;;;;;7.47;100.00;98190.97;6633977;21;20220;-87
2024/04/17 05:26:10;;;;;;;0.70;0.70;;;;;;;7.50;100.00;98187.06;6589418;21;20227;-87
2024/04/17 05:28:38;;;;;;;0.80;0.80;;;;;;;7.52;100.00;98174.28;6589441;21;20235;-87
2024/04/17 05:31:08;;;;;;;0.80;0.80;;;;;;;7.65;100.00;98179.34;6588829;21;20240;-86
2024/04/17 05:33:36;;;;;;;0.80;0.80;;;;;;;7.79;100.00;98182.59;6634784;21;20300;-86
2024/04/17 05:36:07;;;;;;;0.90;0.80;;;;;;;8.05;100.00;98178.53;6632371;21;20232;-87
2024/04/17 05:38:34;;;;;;;0.80;0.80;;;;;;;8.24;100.00;98177.31;6632118;21;20228;-88
2024/04/17 05:41:02;;;;;;;0.90;0.70;;;;;;;8.38;100.00;98179.47;6587780;21;20561;-86
2024/04/17 05:43:30;;;;;;;0.80;0.80;;;;;;;8.44;100.00;98180.38;6632448;21;20228;-87
2024/04/17 05:45:58;;;;;;;0.70;0.70;;;;;;;8.39;100.00;98182.94;6587232;21;20232;-87
2024/04/17 05:48:28;;;;;;;1.40;0.90;;;;;;;8.29;100.00;98182.72;6587962;21;20224;-88
2024/04/17 05:50:56;;;;;;;1.53;0.90;;;;;;;8.17;100.00;98184.63;6631439;21;20224;-85
2024/04/17 05:53:25;;;;;;;1.07;0.87;;;;;;;8.28;100.00;98189.91;6632571;21;20254;-87
2024/04/17 05:55:53;;;;;;;1.50;0.80;;;;;;;8.29;100.00;98194.25;6632075;21;20227;-86
2024/04/17 05:58:21;;;;;;;0.90;0.90;;;;;;;8.25;100.00;98192.25;6587657;21;20228;-86
2024/04/17 06:00:49;;;;;;;1.00;1.00;;;;;;;8.14;100.00;98185.94;6631082;21;20265;-85
2024/04/17 06:03:17;;;;;;;1.30;1.20;;;;;;;8.12;100.00;98195.22;6544869;21;20224;-86
2024/04/17 06:05:45;;;;;;;1.33;1.10;;;;;;;8.18;100.00;98184.41;6631055;21;20232;-87
2024/04/17 06:08:14;;;;;;;1.20;1.10;;;;;;;8.34;100.00;98185.53;6584727;21;20263;-86
2024/04/17 06:10:42;;;;;;;1.43;1.30;;;;;;;8.47;100.00;98182.53;6672838;21;20677;-86
2024/04/17 06:13:14;;;;;;;1.43;1.33;;;;;;;8.71;100.00;98177.88;6587260;21;20697;-86
2024/04/17 06:15:42;;;;;;;1.30;1.20;;;;;;;8.80;100.00;98185.25;6630294;21;20270;-86
2024/04/17 06:18:11;;;;;;;1.63;1.40;;;;;;;8.80;100.00;98187.09;6586692;21;20270;-87
2024/04/17 06:20:44;;;;;;;1.50;1.40;;;;;;;8.97;100.00;98193.22;6542939;21;20283;-86
2024/04/17 06:23:12;;;;;;;1.97;1.60;;;;;;;8.95;100.00;98190.00;6587807;21;20306;-86
2024/04/17 06:25:45;;;;;;;1.63;1.53;;;;;;;8.93;100.00;98186.75;6587612;21;20232;-88
2024/04/17 06:28:12;;;;;;;1.57;1.40;;;;;;;8.93;100.00;98178.75;6587596;21;20224;-86
2024/04/17 06:30:41;;;;;;;1.33;1.23;;;;;;;9.09;100.00;98185.16;6586649;21;20278;-88
2024/04/17 06:33:12;;;;;;;1.50;1.40;;;;;;;9.15;100.00;98181.47;6587827;21;20696;-89
2024/04/17 06:35:44;;;;;;;1.80;1.40;;;;;;;9.12;100.00;98184.66;6587649;21;20236;-87
2024/04/17 06:38:18;;;;;;;1.37;1.27;;;;;;;9.30;100.00;98195.06;6590030;21;20246;-87
2024/04/17 06:40:47;;;;;;;1.80;1.40;;;;;;;9.20;100.00;98190.38;6630639;21;20326;-88
2024/04/17 06:43:15;;;;;;;1.53;1.30;;;;;;;9.39;100.00;98196.25;6586968;21;20228;-86
2024/04/17 06:45:45;;;;;;;1.60;1.50;;;;;;;9.56;100.00;98183.69;6543600;21;20254;-89
2024/04/17 06:48:16;;;;;;;2.33;1.77;;;;;;;9.65;100.00;98192.88;6630342;21;20235;-87
2024/04/17 06:50:51;;;;;;;1.53;1.43;;;;;;;9.71;100.00;98191.06;6587879;21;20282;-88
2024/04/17 06:53:22;;;;;;;1.50;1.33;;;;;;;9.83;100.00;98186.41;6630327;21;20267;-86
2024/04/17 06:55:50;;;;;;;1.60;1.50;;;;;;;10.02;100.00;98186.91;6629225;21;20236;-87
2024/04/17 06:58:21;;;;;;;1.63;1.53;;;;;;;10.20;100.00;98197.28;6629144;21;20263;-85
2024/04/17 07:00:51;;;;;;;1.60;1.50;;;;;;;10.44;100.00;98189.78;6543907;21;20227;-86
2024/04/17 07:03:20;;;;;;;1.63;1.40;;;;;;;10.40;100.00;98189.47;6674023;21;20284;-87
2024/04/17 07:05:48;;;;;;;1.27;1.17;;;;;;;10.68;100.00;98183.03;6628938;21;20220;-86
2024/04/17 07:08:16;;;;;;;1.50;1.40;;;;;;;10.53;100.00;98186.38;6543189;21;20697;-86
2024/04/17 07:10:50;;;;;;;1.50;1.40;;;;;;;10.70;100.00;98188.94;6542562;21;20678;-87
2024/04/17 07:13:19;;;;;;;1.53;1.43;;;;;;;10.58;100.00;98188.31;6630413;21;20713;-86
2024/04/17 07:15:55;;;;;;;1.60;1.50;;;;;;;10.66;100.00;98198.53;6547520;21;20232;-87
2024/04/17 07:18:24;;;;;;;1.90;1.63;;;;;;;10.58;100.00;98189.09;6587268;21;20263;-87
2024/04/17 07:20:53;;;;;;;1.67;1.57;;;;;;;10.78;100.00;98198.38;6629404;21;20220;-86
2024/04/17 07:23:23;;;;;;;1.97;1.80;;;;;;;10.56;100.00;98193.91;6542772;21;20239;-88
2024/04/17 07:26:00;;;;;;;1.50;1.40;;;;;;;10.87;100.00;98202.22;6544626;21;20232;-86
2024/04/17 07:28:28;;;;;;;2.07;1.87;;;;;;;10.57;100.00;98184.00;6585488;21;20244;-87
2024/04/17 07:30:57;;;;;;;2.93;1.60;;;;;;;10.85;100.00;98196.28;6584550;21;20290;-84
2024/04/17 07:33:30;;;;;;;2.03;1.70;;;;;;;10.66;100.00;98197.72;6545144;21;20254;-85
2024/04/17 07:36:03;;;;;;;1.80;1.70;;;;;;;10.77;100.00;98196.75;6585194;21;20232;-86
2024/04/17 07:38:30;;;;;;;2.00;1.90;;;;;;;10.83;100.00;98201.09;6585358;21;20337;-86
2024/04/17 07:41:00;;;;;;;2.43;2.10;;;;;;;10.72;100.00;98189.50;6585107;21;20232;-86
2024/04/17 07:43:32;;;;;;;3.13;1.80;;;;;;;11.15;100.00;98191.13;6628181;21;20232;-86
2024/04/17 07:46:06;;;;;;;2.40;2.10;;;;;;;10.97;100.00;98188.88;6630614;21;20239;-86
2024/04/17 07:48:38;;;;;;;2.00;1.90;;;;;;;11.29;100.00;98189.63;6587700;21;20239;-87
2024/04/17 07:51:06;;;;;;;1.90;1.80;;;;;;;11.60;100.00;98187.13;6627700;21;20227;-87
2024/04/17 07:53:34;;;;;;;2.33;2.13;;;;;;;11.48;100.00;98185.44;6628146;21;20333;-88
2024/04/17 07:56:02;;;;;;;2.10;1.90;;;;;;;11.71;100.00;98186.13;6540671;21;20920;-85
2024/04/17 07:58:30;;;;;;;1.73;1.63;;;;;;;11.36;100.00;98184.03;6628276;21;20267;-86
2024/04/17 08:00:59;;;;;;;1.53;1.43;;;;;;;11.73;100.00;98184.81;6629322;21;20227;-85
2024/04/17 08:03:27;;;;;;;3.27;1.90;;;;;;;11.70;100.00;98182.63;6540740;21;20310;-84
2024/04/17 08:05:55;;;;;;;1.97;1.70;;;;;;;11.80;100.00;98179.22;6628644;21;20220;-86
2024/04/17 08:08:23;;;;;;;1.90;1.80;;;;;;;11.70;100.00;98182.63;6541024;21;20658;-86
2024/04/17 08:10:53;;;;;;;1.87;1.70;;;;;;;11.79;100.00;98175.72;6584039;21;20219;-86
2024/04/17 08:13:21;;;;;;;1.90;1.80;;;;;;;11.48;100.00;98181.97;6582745;21;20232;-87
2024/04/17 08:15:53;;;;;;;2.60;1.70;;;;;;;11.64;100.00;98180.16;6671636;21;20262;-86
2024/04/17 08:18:21;;;;;;;2.20;2.00;;;;;;;11.73;100.00;98190.19;6627814;21;20231;-86
2024/04/17 08:20:55;;;;;;;2.10;1.90;;;;;;;11.76;100.00;98188.84;6583148;21;20239;-88
2024/04/17 08:23:26;;;;;;;4.93;4.47;;;;;;;11.86;100.00;98195.06;6627234;21;20267;-86
2024/04/17 08:26:02;;;;;;;3.43;2.80;;;;;;;12.06;100.00;98205.06;6583609;21;20239;-86
2024/04/17 08:28:33;;;;;;;3.83;3.30;;;;;;;12.15;100.00;98195.44;6584653;21;20227;-87
2024/04/17 08:31:01;;;;;;;2.70;2.10;;;;;;;11.99;100.00;98195.66;6538026;21;20244;-85
2024/04/17 08:33:28;;;;;;;2.70;2.40;;;;;;;12.06;100.00;98193.53;6628824;21;20224;-86
2024/04/17 08:36:02;;;;;;;2.27;2.17;;;;;;;12.30;100.00;98191.97;6584795;21;20228;-84
2024/04/17 08:38:32;;;;;;;2.37;2.20;;;;;;;12.19;100.00;98185.78;6629835;21;20701;-86
2024/04/17 08:41:01;;;;;;;2.20;2.10;;;;;;;12.17;100.00;98198.66;6582331;21;20227;-85
2024/04/17 08:43:35;;;;;;;1.80;1.70;;;;;;;12.03;100.00;98194.88;6626091;21;20279;-86
2024/04/17 08:46:08;;;;;;;2.00;1.80;;;;;;;12.11;100.00;98196.22;6583823;21;20275;-86
2024/04/17 08:48:39;;;;;;;2.10;1.83;;;;;;;12.52;100.00;98194.44;6626825;21;20680;-86
2024/04/17 08:51:11;;;;;;;2.67;2.47;;;;;;;12.28;100.00;98199.47;6582770;21;20300;-86
2024/04/17 08:53:40;;;;;;;2.03;1.90;;;;;;;12.50;100.00;98194.72;6626032;21;20239;-86
2024/04/17 08:56:08;;;;;;;2.40;2.20;;;;;;;12.64;100.00;98197.69;6541854;21;20263;-86
2024/04/17 08:58:45;;;;;;;2.07;1.97;;;;;;;12.68;100.00;98198.75;6587873;21;20247;-84
2024/04/17 09:01:20;;;;;;;2.40;2.00;;;;;;;12.79;100.00;98195.78;6629809;21;20239;-85
2024/04/17 09:03:48;;;;;;;2.23;2.13;;;;;;;12.92;100.00;98193.66;6586451;21;20232;-85
2024/04/17 09:06:16;;;;;;;2.97;2.10;;;;;;;12.88;100.00;98197.97;6629176;21;20248;-86
2024/04/17 09:08:48;;;;;;;2.23;2.13;;;;;;;13.09;100.00;98194.19;6623400;21;20275;-84
2024/04/17 09:11:23;;;;;;;3.63;2.50;;;;;;;12.94;100.00;98204.94;6581849;21;20580;-84
2024/04/17 09:13:56;;;;;;;2.27;2.10;;;;;;;12.41;100.00;98203.56;6626802;21;20710;-81
2024/04/17 09:16:24;;;;;;;2.77;2.10;;;;;;;12.03;100.00;98207.47;6585840;21;20645;-82
2024/04/17 09:18:52;;;;;;;2.30;2.20;;;;;;;12.01;100.00;98202.38;6586011;21;20248;-83
2024/04/17 09:21:20;;;;;;;2.50;2.30;;;;;;;11.74;100.00;98207.91;6585629;21;20308;-83
2024/04/17 09:23:48;;;;;;;2.40;2.20;;;;;;;11.52;100.00;98201.03;6630181;21;20813;-83
2024/04/17 09:26:20;;;;;;;14.13;11.00;;;;;;;11.60;100.00;98198.66;6587207;21;20333;-82
2024/04/17 09:28:49;;;;;;;3.00;2.70;;;;;;;11.62;100.00;98201.09;6631499;21;20224;-83
2024/04/17 09:31:17;;;;;;;2.63;2.43;;;;;;;11.73;100.00;98206.28;6585296;21;20241;-83
2024/04/17 09:33:45;;;;;;;3.13;2.50;;;;;;;11.79;100.00;98207.91;6586297;21;20271;-84
2024/04/17 09:36:24;;;;;;;3.83;3.43;;;;;;;11.67;100.00;98203.78;6585194;21;20293;-84
2024/04/17 09:38:56;;;;;;;2.87;2.67;;;;;;;11.89;100.00;98196.44;6586363;21;20268;-83
2024/04/17 09:41:27;;;;;;;2.77;2.57;;;;;;;11.80;100.00;98196.09;6585607;21;20235;-83
2024/04/17 09:43:57;;;;;;;5.83;4.97;;;;;;;12.14;100.00;98199.19;6585478;21;20723;-85
2024/04/17 09:46:26;;;;;;;2.83;2.63;;;;;;;12.39;100.00;98189.59;6585171;21;20228;-84
2024/04/17 09:48:55;;;;;;;4.40;4.00;;;;;;;12.84;100.00;98191.50;6584433;21;20229;-83
2024/04/17 09:51:26;;;;;;;3.40;3.10;;;;;;;13.03;100.00;98195.25;6584641;21;20220;-83
2024/04/17 09:53:59;;;;;;;3.10;2.87;;;;;;;12.72;100.00;98192.59;6543607;21;20624;-84
2024/04/17 09:56:29;;;;;;;3.20;2.90;;;;;;;12.82;100.00;98191.78;6585184;21;20258;-85
2024/04/17 09:59:02;;;;;;;3.20;2.90;;;;;;;12.63;100.00;98204.13;6545227;21;20232;-83
2024/04/17 10:01:38;;;;;;;3.33;3.13;;;;;;;12.16;100.00;98193.56;6631633;21;20255;-83
2024/04/17 10:04:07;;;;;;;3.30;3.10;;;;;;;11.84;100.00;98196.41;6585387;21;20674;-83
2024/04/17 10:06:44;;;;;;;4.40;4.10;;;;;;;11.78;100.00;98198.25;6588032;21;20279;-83
2024/04/17 10:09:15;;;;;;;5.40;5.00;;;;;;;11.56;100.00;98191.41;6585448;21;20269;-85
2024/04/17 10:11:43;;;;;;;5.10;4.70;;;;;;;11.53;100.00;98202.63;6629181;21;20715;-82
2024/04/17 10:14:13;;;;;;;4.87;4.47;;;;;;;11.50;100.00;98195.94;6585650;21;20232;-83
2024/04/17 10:16:41;;;;;;;3.23;3.03;;;;;;;11.76;100.00;98202.25;6586049;21;20228;-84
2024/04/17 10:19:12;;;;;;;3.30;3.10;;;;;;;11.86;100.00;98199.63;6630940;21;20349;-83
2024/04/17 10:21:42;;;;;;;3.47;3.17;;;;;;;11.89;100.00;98201.78;6586150;21;20224;-83
2024/04/17 10:24:11;;;;;;;3.83;3.53;;;;;;;11.85;100.00;98217.59;6629308;21;20270;-83
2024/04/17 10:26:49;;;;;;;2.87;2.67;;;;;;;11.67;100.00;98209.16;6628877;21;20228;-83
2024/04/17 10:29:28;;;;;;;3.20;3.00;;;;;;;12.06;100.00;98206.94;6629462;21;20758;-85
2024/04/17 10:32:00;;;;;;;3.97;3.50;;;;;;;11.38;100.00;98214.88;6587016;21;20244;-86
2024/04/17 10:34:29;;;;;;;4.10;3.80;;;;;;;10.41;100.00;98211.69;6631505;21;20271;-85
2024/04/17 10:37:01;;;;;;;4.70;3.77;;;;;;;10.38;100.00;98221.03;6631054;21;20234;-87
2024/04/17 10:39:32;;;;;;;4.33;3.93;;;;;;;10.51;100.00;98214.47;6587152;21;20334;-87
2024/04/17 10:42:00;;;;;;;4.00;3.70;;;;;;;10.13;100.00;98228.75;6545415;21;20227;-87
2024/04/17 10:44:31;;;;;;;3.97;3.67;;;;;;;9.82;100.00;98230.25;6587648;21;20236;-87
2024/04/17 10:47:06;;;;;;;4.40;4.00;;;;;;;9.64;100.00;98236.72;6588359;21;20673;-87
2024/04/17 10:49:38;;;;;;;4.50;4.20;;;;;;;9.14;100.00;98236.81;6587363;21;20239;-88
2024/04/17 10:52:07;;;;;;;4.90;4.40;;;;;;;9.24;100.00;98239.59;6587565;21;20255;-86
2024/04/17 10:54:35;;;;;;;4.77;4.37;;;;;;;9.11;100.00;98233.78;6588690;21;20224;-87
2024/04/17 10:57:04;;;;;;;5.03;4.63;;;;;;;9.75;100.00;98240.34;6631773;21;20276;-86
2024/04/17 10:59:32;;;;;;;5.30;4.80;;;;;;;9.86;100.00;98227.88;6631514;21;20297;-86
2024/04/17 11:02:06;;;;;;;5.00;4.60;;;;;;;10.46;100.00;98223.25;6588888;21;20747;-86
2024/04/17 11:04:45;;;;;;;5.00;4.60;;;;;;;10.84;100.00;98213.41;6635931;21;20305;-86
2024/04/17 11:07:13;;;;;;;4.77;4.40;;;;;;;11.57;100.00;98209.13;6587044;21;20274;-87
2024/04/17 11:09:45;;;;;;;4.73;4.33;;;;;;;11.65;100.00;98203.25;6586098;21;20224;-86
2024/04/17 11:12:15;;;;;;;4.27;3.97;;;;;;;12.10;100.00;98203.47;6631852;21;20255;-85
2024/04/17 11:14:45;;;;;;;3.70;3.40;;;;;;;12.05;100.00;98195.41;6586357;21;20236;-86
2024/04/17 11:17:13;;;;;;;3.87;3.57;;;;;;;12.05;100.00;98189.22;6585965;21;20224;-86
2024/04/17 11:19:42;;;;;;;3.83;3.47;;;;;;;12.75;100.00;98193.91;6629370;21;20236;-85
2024/04/17 11:22:20;;;;;;;3.30;3.00;;;;;;;13.45;100.00;98200.34;6585554;21;20224;-85
2024/04/17 11:24:57;;;;;;;3.57;3.27;;;;;;;13.55;100.00;98187.69;6628816;21;20232;-86
2024/04/17 11:27:25;;;;;;;3.43;3.13;;;;;;;13.25;100.00;98193.09;6585653;21;20324;-87
2024/04/17 11:29:53;;;;;;;3.10;2.90;;;;;;;13.76;100.00;98201.91;6541168;21;20232;-87
2024/04/17 11:32:21;;;;;;;4.97;3.70;;;;;;;14.00;100.00;98200.16;6627355;21;20249;-86
2024/04/17 11:34:49;;;;;;;2.93;2.73;;;;;;;13.18;100.00;98195.28;6585214;21;20241;-85
2024/04/17 11:37:17;;;;;;;3.83;2.20;;;;;;;13.22;100.00;98196.34;6630259;21;20289;-86
2024/04/17 11:39:45;;;;;;;2.07;1.70;;;;;;;12.39;100.00;98185.03;6585211;21;20263;-87
2024/04/17 11:42:16;;;;;;;3.53;1.60;;;;;;;12.32;100.00;98187.94;6586078;21;20237;-84